Time;durP1;ratioP1;P1;durP2;ratioP2;P2;SDS_P1;SDS_P2;PMS_P1;PMS_P2;Temp;Humidity;BMP_temperature;BMP_pressure;BME280_temperature;BME280_humidity;BME280_pressure;Samples;Min_cycle;Max_cycle;Signal;HPM_P1;HPM_P2
2023/05/25 00:01:43;;;;;;;6.82;5.75;;;;;;;;;;5056364;28;20040;-60
2023/05/25 00:04:09;;;;;;;7.00;5.85;;;;;;;;;;5056487;28;20505;-61
2023/05/25 00:06:39;;;;;;;8.10;6.07;;;;;;;;;;5054577;28;20048;-61
2023/05/25 00:09:05;;;;;;;6.90;6.13;;;;;;;;;;5054814;28;20451;-61
2023/05/25 00:11:30;;;;;;;6.55;5.78;;;;;;;;;;5057333;28;20455;-61
2023/05/25 00:13:55;;;;;;;9.95;5.40;;;;;;;;;;5056418;28;20034;-60
2023/05/25 00:16:21;;;;;;;7.78;6.68;;;;;;;;;;5057115;28;20109;-61
2023/05/25 00:18:47;;;;;;;8.65;6.65;;;;;;;;;;5055239;28;20037;-61
2023/05/25 00:21:19;;;;;;;8.95;6.70;;;;;;;;;;5038939;28;20123;-61
2023/05/25 00:23:45;;;;;;;9.02;6.70;;;;;;;;;;5055983;28;20601;-60
2023/05/25 00:26:12;;;;;;;8.30;5.93;;;;;;;;;;5055825;28;20210;-62
2023/05/25 00:28:37;;;;;;;8.27;5.93;;;;;;;;;;5055311;28;20200;-60
2023/05/25 00:31:03;;;;;;;6.82;5.47;;;;;;;;;;5056544;28;20522;-61
2023/05/25 00:33:28;;;;;;;7.75;6.20;;;;;;;;;;5056000;28;20036;-60
2023/05/25 00:35:55;;;;;;;9.32;6.03;;;;;;;;;;5054559;28;20117;-61
2023/05/25 00:38:29;;;;;;;8.55;6.90;;;;;;;;;;5055551;28;20032;-61
2023/05/25 00:40:57;;;;;;;9.63;7.07;;;;;;;;;;5055532;28;20120;-62
2023/05/25 00:43:23;;;;;;;8.05;6.40;;;;;;;;;;5056735;28;20037;-62
2023/05/25 00:45:50;;;;;;;8.32;6.45;;;;;;;;;;5056111;28;20474;-61
2023/05/25 00:48:16;;;;;;;9.57;6.95;;;;;;;;;;5057334;28;20042;-61
2023/05/25 00:50:43;;;;;;;14.77;8.25;;;;;;;;;;5053745;28;20037;-61
2023/05/25 00:53:09;;;;;;;9.63;6.75;;;;;;;;;;5056365;28;20445;-61
2023/05/25 00:55:39;;;;;;;10.23;7.30;;;;;;;;;;5058740;28;20033;-61
2023/05/25 00:58:06;;;;;;;9.27;6.53;;;;;;;;;;5055739;28;20411;-60
2023/05/25 01:00:34;;;;;;;10.60;6.78;;;;;;;;;;5036590;28;20040;-61
2023/05/25 01:03:03;;;;;;;8.07;6.32;;;;;;;;;;5053906;28;20044;-62
2023/05/25 01:05:30;;;;;;;9.90;7.07;;;;;;;;;;5055800;28;20114;-60
2023/05/25 01:07:56;;;;;;;8.77;7.88;;;;;;;;;;5039181;28;20063;-60
2023/05/25 01:10:23;;;;;;;12.38;7.10;;;;;;;;;;5040135;28;20391;-61
2023/05/25 01:12:50;;;;;;;9.82;6.90;;;;;;;;;;5057160;28;20034;-62
2023/05/25 01:15:16;;;;;;;9.93;7.68;;;;;;;;;;5054652;28;20044;-61
2023/05/25 01:17:43;;;;;;;8.52;6.97;;;;;;;;;;5055133;28;20032;-61
2023/05/25 01:20:08;;;;;;;10.85;7.72;;;;;;;;;;5038124;28;20506;-61
2023/05/25 01:22:39;;;;;;;10.65;7.65;;;;;;;;;;5054657;28;20121;-61
2023/05/25 01:25:12;;;;;;;8.83;6.80;;;;;;;;;;5056388;28;20478;-61
2023/05/25 01:27:58;;;;;;;9.13;6.88;;;;;;;;;;5053800;28;20048;-61
2023/05/25 01:30:23;;;;;;;;;;;;;;;;;;5033512;28;20127;-60
2023/05/25 01:32:49;;;;;;;8.75;7.63;;;;;;;;;;5037062;28;19912;-61
2023/05/25 01:35:15;;;;;;;13.95;7.70;;;;;;;;;;5041630;28;20064;-60
2023/05/25 01:37:47;;;;;;;12.93;7.00;;;;;;;;;;5036934;28;20036;-61
2023/05/25 01:40:13;;;;;;;14.40;9.55;;;;;;;;;;5041619;28;20507;-60
2023/05/25 01:42:40;;;;;;;13.75;7.82;;;;;;;;;;5054131;28;20507;-61
2023/05/25 01:45:06;;;;;;;10.25;7.65;;;;;;;;;;5056312;28;20040;-60
2023/05/25 01:47:38;;;;;;;9.95;7.60;;;;;;;;;;5055681;28;20060;-62
2023/05/25 01:50:06;;;;;;;10.55;7.72;;;;;;;;;;5055585;28;20033;-61
2023/05/25 01:52:34;;;;;;;9.63;7.60;;;;;;;;;;5030752;28;20044;-61
2023/05/25 01:55:04;;;;;;;9.65;8.18;;;;;;;;;;5040678;28;20105;-60
2023/05/25 01:57:35;;;;;;;11.60;9.07;;;;;;;;;;5055378;28;20364;-62
2023/05/25 02:00:02;;;;;;;8.15;6.90;;;;;;;;;;5039353;28;20037;-60
2023/05/25 02:02:27;;;;;;;8.70;7.18;;;;;;;;;;5034498;28;20090;-61
2023/05/25 02:04:53;;;;;;;10.07;7.63;;;;;;;;;;5056515;28;20499;-61
2023/05/25 02:07:21;;;;;;;10.68;7.35;;;;;;;;;;5034296;28;20480;-61
2023/05/25 02:09:47;;;;;;;14.25;7.72;;;;;;;;;;5040334;28;20043;-61
2023/05/25 02:12:13;;;;;;;8.98;7.40;;;;;;;;;;5057876;28;20021;-61
2023/05/25 02:14:40;;;;;;;10.98;7.70;;;;;;;;;;5058433;28;20025;-60
2023/05/25 02:17:06;;;;;;;10.05;6.93;;;;;;;;;;5043214;28;20067;-61
2023/05/25 02:19:34;;;;;;;9.68;7.43;;;;;;;;;;5037762;28;20040;-61
2023/05/25 02:22:00;;;;;;;12.80;7.18;;;;;;;;;;5061724;28;20036;-61
2023/05/25 02:24:25;;;;;;;10.30;7.97;;;;;;;;;;5040313;28;20033;-62
2023/05/25 02:26:51;;;;;;;10.93;8.07;;;;;;;;;;5060352;28;20032;-60
2023/05/25 02:29:17;;;;;;;15.50;8.60;;;;;;;;;;5045906;28;20333;-60
2023/05/25 02:31:42;;;;;;;9.63;7.07;;;;;;;;;;5033693;28;20388;-61
2023/05/25 02:34:08;;;;;;;11.45;8.20;;;;;;;;;;5041377;28;20098;-60
2023/05/25 02:36:33;;;;;;;11.70;7.85;;;;;;;;;;5058015;28;20526;-61
2023/05/25 02:38:59;;;;;;;10.45;7.20;;;;;;;;;;5058781;28;20056;-61
2023/05/25 02:41:26;;;;;;;11.73;7.97;;;;;;;;;;5039848;28;20075;-61
2023/05/25 02:43:51;;;;;;;12.10;8.70;;;;;;;;;;5043697;28;20039;-61
2023/05/25 02:46:17;;;;;;;12.27;8.00;;;;;;;;;;5059509;28;20042;-62
2023/05/25 02:48:43;;;;;;;12.18;8.23;;;;;;;;;;5059612;28;20127;-61
2023/05/25 02:51:08;;;;;;;12.48;8.30;;;;;;;;;;5044722;28;20090;-61
2023/05/25 02:53:35;;;;;;;12.90;8.00;;;;;;;;;;5040037;28;20135;-61
2023/05/25 02:56:03;;;;;;;11.80;8.80;;;;;;;;;;5043756;28;20029;-61
2023/05/25 02:58:31;;;;;;;11.90;8.50;;;;;;;;;;5042315;28;20377;-61
2023/05/25 03:01:04;;;;;;;16.10;9.70;;;;;;;;;;5043582;28;20405;-62
2023/05/25 03:03:33;;;;;;;9.00;7.75;;;;;;;;;;5047019;28;20037;-61
2023/05/25 03:05:58;;;;;;;17.83;10.55;;;;;;;;;;5058204;28;20072;-61
2023/05/25 03:08:25;;;;;;;14.88;8.25;;;;;;;;;;5038685;28;20045;-60
2023/05/25 03:10:50;;;;;;;10.20;7.95;;;;;;;;;;5041038;28;20037;-61
2023/05/25 03:13:16;;;;;;;11.88;8.15;;;;;;;;;;5042332;28;20126;-61
2023/05/25 03:15:42;;;;;;;11.52;8.88;;;;;;;;;;5057069;28;20055;-61
2023/05/25 03:18:08;;;;;;;14.60;9.80;;;;;;;;;;5056564;28;20399;-61
2023/05/25 03:20:36;;;;;;;13.02;9.05;;;;;;;;;;5043955;28;20131;-61
2023/05/25 03:23:02;;;;;;;11.98;8.23;;;;;;;;;;5038580;28;20531;-61
2023/05/25 03:25:27;;;;;;;12.48;8.35;;;;;;;;;;5042474;28;20079;-61
2023/05/25 03:27:54;;;;;;;13.68;8.55;;;;;;;;;;5043076;28;20135;-61
2023/05/25 03:30:23;;;;;;;12.57;8.10;;;;;;;;;;5043673;28;20033;-61
2023/05/25 03:32:49;;;;;;;12.63;8.50;;;;;;;;;;5038945;28;20033;-61
2023/05/25 03:35:15;;;;;;;18.15;9.23;;;;;;;;;;5039254;28;20040;-61
2023/05/25 03:37:40;;;;;;;14.43;9.40;;;;;;;;;;5058668;28;20044;-61
2023/05/25 03:40:08;;;;;;;12.93;9.00;;;;;;;;;;5043055;28;20609;-60
2023/05/25 03:42:34;;;;;;;12.80;8.73;;;;;;;;;;5059824;28;20024;-61
2023/05/25 03:44:59;;;;;;;13.07;8.65;;;;;;;;;;5038867;28;20492;-60
2023/05/25 03:47:25;;;;;;;14.93;9.65;;;;;;;;;;5040984;28;20075;-61
2023/05/25 03:49:51;;;;;;;11.27;9.35;;;;;;;;;;5022267;28;22142;-61
2023/05/25 03:52:17;;;;;;;13.43;9.10;;;;;;;;;;5038341;28;20048;-62
2023/05/25 03:54:43;;;;;;;13.02;8.20;;;;;;;;;;5056581;28;20503;-62
2023/05/25 03:57:08;;;;;;;16.35;7.78;;;;;;;;;;5056091;28;20377;-62
2023/05/25 03:59:33;;;;;;;20.33;8.35;;;;;;;;;;5056509;28;20621;-61
2023/05/25 04:01:59;;;;;;;16.58;10.02;;;;;;;;;;5056553;28;20139;-60
2023/05/25 04:04:28;;;;;;;11.20;8.25;;;;;;;;;;5057645;28;20061;-61
2023/05/25 04:06:54;;;;;;;17.67;9.93;;;;;;;;;;5056305;28;20084;-61
2023/05/25 04:09:19;;;;;;;9.68;8.65;;;;;;;;;;5056013;28;20107;-60
2023/05/25 04:11:45;;;;;;;15.13;8.93;;;;;;;;;;5055977;28;20496;-60
2023/05/25 04:14:11;;;;;;;14.57;8.32;;;;;;;;;;5057488;28;20029;-64
2023/05/25 04:16:41;;;;;;;13.95;8.18;;;;;;;;;;5036550;28;20079;-61
2023/05/25 04:19:07;;;;;;;10.98;9.38;;;;;;;;;;5041348;28;20059;-62
2023/05/25 04:21:33;;;;;;;13.80;8.32;;;;;;;;;;5037060;28;20136;-60
2023/05/25 04:24:00;;;;;;;13.07;8.48;;;;;;;;;;5039526;28;20159;-61
2023/05/25 04:26:26;;;;;;;10.88;7.72;;;;;;;;;;5040308;28;20072;-62
2023/05/25 04:28:54;;;;;;;15.32;10.48;;;;;;;;;;5038415;28;20042;-65
2023/05/25 04:31:58;;;;;;;14.52;7.82;;;;;;;;;;4978549;28;20049;-63
2023/05/25 04:34:43;;;;;;;13.02;8.30;;;;;;;;;;4962507;28;20042;-65
2023/05/25 04:37:16;;;;;;;13.55;9.43;;;;;;;;;;4963233;28;20046;-64
2023/05/25 04:39:41;;;;;;;13.88;7.22;;;;;;;;;;4946394;28;20477;-63
2023/05/25 04:42:11;;;;;;;12.68;8.63;;;;;;;;;;4964430;28;20148;-64
2023/05/25 04:44:38;;;;;;;12.68;7.82;;;;;;;;;;4967879;28;20042;-64
2023/05/25 04:47:06;;;;;;;16.63;8.20;;;;;;;;;;4958993;28;20505;-63
2023/05/25 04:49:32;;;;;;;13.25;8.23;;;;;;;;;;4962464;28;20046;-63
2023/05/25 04:51:58;;;;;;;8.20;7.20;;;;;;;;;;4962536;28;20404;-63
2023/05/25 04:54:24;;;;;;;8.75;7.03;;;;;;;;;;4959664;28;20039;-63
2023/05/25 04:56:50;;;;;;;13.65;8.27;;;;;;;;;;4958856;28;20062;-62
2023/05/25 04:59:15;;;;;;;9.73;7.20;;;;;;;;;;4977435;28;20034;-64
2023/05/25 05:01:43;;;;;;;25.98;14.43;;;;;;;;;;4961832;28;20133;-62
2023/05/25 05:04:10;;;;;;;10.13;7.47;;;;;;;;;;5042074;28;20569;-62
2023/05/25 05:06:38;;;;;;;13.32;7.47;;;;;;;;;;5041263;28;20496;-60
2023/05/25 05:09:04;;;;;;;12.15;7.18;;;;;;;;;;5041506;28;20029;-66
2023/05/25 05:11:30;;;;;;;8.50;7.25;;;;;;;;;;5040559;28;20039;-60
2023/05/25 05:13:56;;;;;;;9.90;6.80;;;;;;;;;;5024223;28;20053;-60
2023/05/25 05:16:22;;;;;;;9.10;6.60;;;;;;;;;;5034554;28;20098;-60
2023/05/25 05:18:47;;;;;;;10.23;6.35;;;;;;;;;;5038995;28;20025;-59
2023/05/25 05:21:13;;;;;;;15.40;6.78;;;;;;;;;;5055492;28;20044;-59
2023/05/25 05:23:39;;;;;;;10.60;6.53;;;;;;;;;;5056092;28;20028;-63
2023/05/25 05:26:06;;;;;;;15.13;7.45;;;;;;;;;;5054427;28;20415;-60
2023/05/25 05:28:31;;;;;;;9.00;5.55;;;;;;;;;;5038089;28;20047;-59
2023/05/25 05:30:57;;;;;;;11.77;6.90;;;;;;;;;;5038038;28;20036;-60
2023/05/25 05:33:23;;;;;;;11.63;7.07;;;;;;;;;;5037165;28;20508;-60
2023/05/25 05:35:49;;;;;;;9.02;6.10;;;;;;;;;;5055564;28;20041;-59
2023/05/25 05:38:19;;;;;;;12.35;6.85;;;;;;;;;;5037316;28;20111;-59
2023/05/25 05:40:44;;;;;;;12.52;6.75;;;;;;;;;;5040046;28;20037;-59
2023/05/25 05:43:11;;;;;;;7.05;5.82;;;;;;;;;;5048049;28;20086;-60
2023/05/25 05:45:36;;;;;;;9.98;6.45;;;;;;;;;;5039319;28;20028;-60
2023/05/25 05:48:03;;;;;;;7.75;6.93;;;;;;;;;;5058193;28;20029;-59
2023/05/25 05:50:29;;;;;;;8.73;6.57;;;;;;;;;;5043458;28;20513;-60
2023/05/25 05:52:54;;;;;;;7.80;5.53;;;;;;;;;;5040852;28;20036;-60
2023/05/25 05:55:20;;;;;;;7.47;6.50;;;;;;;;;;5044176;28;20055;-60
2023/05/25 05:57:48;;;;;;;7.22;5.68;;;;;;;;;;5040116;28;20159;-59
2023/05/25 06:00:14;;;;;;;10.80;7.00;;;;;;;;;;5057295;28;20042;-59
2023/05/25 06:02:44;;;;;;;8.68;5.50;;;;;;;;;;5061095;28;20028;-60
2023/05/25 06:05:13;;;;;;;11.10;6.60;;;;;;;;;;5023191;28;20636;-61
2023/05/25 06:07:40;;;;;;;11.82;6.07;;;;;;;;;;5039919;28;20033;-61
2023/05/25 06:10:06;;;;;;;14.13;5.85;;;;;;;;;;5040897;28;20037;-61
2023/05/25 06:12:32;;;;;;;12.13;6.90;;;;;;;;;;5044566;28;20548;-60
2023/05/25 06:14:58;;;;;;;6.47;5.75;;;;;;;;;;5040647;28;20028;-60
2023/05/25 06:17:23;;;;;;;9.82;6.03;;;;;;;;;;5045049;28;20498;-60
2023/05/25 06:19:52;;;;;;;10.85;6.20;;;;;;;;;;5042264;28;20044;-60
2023/05/25 06:22:17;;;;;;;10.27;5.40;;;;;;;;;;5044087;28;20071;-61
2023/05/25 06:24:43;;;;;;;9.07;5.40;;;;;;;;;;5037044;28;20025;-61
2023/05/25 06:27:08;;;;;;;11.27;5.55;;;;;;;;;;5043902;28;20557;-60
2023/05/25 06:29:34;;;;;;;12.85;6.63;;;;;;;;;;5041029;28;20644;-60
2023/05/25 06:31:59;;;;;;;9.60;5.72;;;;;;;;;;5058114;28;20510;-59
2023/05/25 06:34:25;;;;;;;10.93;6.95;;;;;;;;;;5041193;28;20487;-60
2023/05/25 06:36:51;;;;;;;7.97;5.25;;;;;;;;;;5040780;28;20151;-59
2023/05/25 06:39:16;;;;;;;12.63;6.05;;;;;;;;;;5037802;28;20048;-60
2023/05/25 06:41:42;;;;;;;11.63;5.75;;;;;;;;;;5040331;28;20556;-59
2023/05/25 06:44:08;;;;;;;10.27;5.93;;;;;;;;;;5040853;28;20249;-60
2023/05/25 06:46:40;;;;;;;10.75;6.15;;;;;;;;;;5038834;28;20169;-60
2023/05/25 06:49:07;;;;;;;9.95;5.93;;;;;;;;;;5039310;28;20490;-60
2023/05/25 06:51:33;;;;;;;8.25;5.63;;;;;;;;;;5058116;28;20119;-60
2023/05/25 06:53:58;;;;;;;9.57;7.30;;;;;;;;;;5057159;28;20044;-61
2023/05/25 06:56:23;;;;;;;10.48;6.40;;;;;;;;;;5056345;28;20041;-60
2023/05/25 06:58:49;;;;;;;6.97;5.30;;;;;;;;;;5038798;28;20036;-61
2023/05/25 07:01:15;;;;;;;6.75;5.10;;;;;;;;;;5057159;28;20043;-62
2023/05/25 07:03:41;;;;;;;9.45;6.03;;;;;;;;;;5055312;28;20036;-60
2023/05/25 07:06:06;;;;;;;6.72;5.20;;;;;;;;;;5057183;28;20467;-60
2023/05/25 07:08:35;;;;;;;8.27;5.45;;;;;;;;;;5058978;28;20040;-61
2023/05/25 07:11:00;;;;;;;12.75;5.85;;;;;;;;;;5054229;28;20095;-60
2023/05/25 07:13:26;;;;;;;9.25;5.50;;;;;;;;;;5058328;28;20017;-59
2023/05/25 07:15:51;;;;;;;7.85;5.30;;;;;;;;;;5056739;28;20038;-59
2023/05/25 07:18:17;;;;;;;7.65;5.43;;;;;;;;;;5044340;28;20028;-60
2023/05/25 07:20:42;;;;;;;7.47;5.45;;;;;;;;;;5045166;28;20500;-60
2023/05/25 07:23:08;;;;;;;10.57;5.15;;;;;;;;;;5057739;28;20364;-59
2023/05/25 07:25:34;;;;;;;8.32;5.18;;;;;;;;;;5056059;28;20037;-59
2023/05/25 07:28:00;;;;;;;6.80;4.93;;;;;;;;;;5057823;28;20059;-60
2023/05/25 07:30:26;;;;;;;12.18;5.13;;;;;;;;;;5055555;28;20147;-60
2023/05/25 07:32:51;;;;;;;9.90;5.55;;;;;;;;;;5058182;28;20035;-59
2023/05/25 07:35:16;;;;;;;7.25;4.97;;;;;;;;;;5055433;28;20063;-59
2023/05/25 07:37:42;;;;;;;8.70;5.88;;;;;;;;;;5056447;28;20115;-60
2023/05/25 07:40:07;;;;;;;11.95;6.45;;;;;;;;;;5056821;28;20476;-60
2023/05/25 07:42:34;;;;;;;9.90;5.05;;;;;;;;;;5055465;28;20028;-59
2023/05/25 07:45:00;;;;;;;9.32;5.22;;;;;;;;;;5056782;28;20159;-61
2023/05/25 07:47:25;;;;;;;5.38;4.72;;;;;;;;;;5057815;28;20418;-60
2023/05/25 07:49:51;;;;;;;9.07;5.47;;;;;;;;;;5055016;28;20512;-60
2023/05/25 07:52:17;;;;;;;7.05;5.50;;;;;;;;;;5055120;28;20032;-59
2023/05/25 07:54:43;;;;;;;6.95;5.30;;;;;;;;;;5058650;28;20040;-60
2023/05/25 07:57:09;;;;;;;9.07;4.68;;;;;;;;;;5060170;28;20331;-59
2023/05/25 07:59:34;;;;;;;10.60;6.10;;;;;;;;;;5054612;28;20029;-61
2023/05/25 08:02:00;;;;;;;5.28;4.65;;;;;;;;;;5040176;28;20355;-58
2023/05/25 08:04:25;;;;;;;8.15;5.32;;;;;;;;;;5053768;28;20052;-59
2023/05/25 08:06:51;;;;;;;6.72;4.65;;;;;;;;;;5054658;28;20431;-58
2023/05/25 08:09:16;;;;;;;9.63;5.28;;;;;;;;;;5055709;28;20035;-58
2023/05/25 08:11:43;;;;;;;12.43;5.18;;;;;;;;;;5056525;28;20572;-60
2023/05/25 08:14:09;;;;;;;7.93;4.68;;;;;;;;;;5055440;28;20083;-59
2023/05/25 08:16:35;;;;;;;8.05;5.60;;;;;;;;;;5054770;28;20431;-59
2023/05/25 08:19:01;;;;;;;8.80;4.82;;;;;;;;;;5056582;28;20479;-59
2023/05/25 08:21:26;;;;;;;7.65;5.05;;;;;;;;;;5048524;28;20053;-60
2023/05/25 08:23:52;;;;;;;8.15;5.25;;;;;;;;;;5053301;28;20044;-59
2023/05/25 08:26:18;;;;;;;8.25;5.32;;;;;;;;;;5053180;28;20560;-60
2023/05/25 08:28:43;;;;;;;7.90;4.82;;;;;;;;;;5055522;28;20028;-60
2023/05/25 08:31:08;;;;;;;9.43;5.30;;;;;;;;;;5056319;28;20116;-59
2023/05/25 08:33:34;;;;;;;7.82;4.95;;;;;;;;;;5056603;28;20548;-59
2023/05/25 08:36:00;;;;;;;5.75;4.63;;;;;;;;;;5052965;28;20760;-60
2023/05/25 08:38:25;;;;;;;6.18;4.32;;;;;;;;;;5054913;28;20125;-59
2023/05/25 08:41:04;;;;;;;5.72;4.25;;;;;;;;;;5024722;28;20037;-59
2023/05/25 08:43:31;;;;;;;7.03;4.70;;;;;;;;;;5054924;28;20029;-60
2023/05/25 08:45:58;;;;;;;6.55;5.40;;;;;;;;;;5054155;28;20080;-59
2023/05/25 08:48:24;;;;;;;11.75;5.97;;;;;;;;;;5054420;28;20098;-57
2023/05/25 08:50:51;;;;;;;9.32;4.55;;;;;;;;;;5053790;28;20033;-58
2023/05/25 08:53:17;;;;;;;7.03;5.05;;;;;;;;;;5055927;28;20043;-57
2023/05/25 08:55:43;;;;;;;7.18;4.22;;;;;;;;;;5035986;28;20064;-58
2023/05/25 08:58:13;;;;;;;6.80;4.60;;;;;;;;;;5055641;28;20043;-58
2023/05/25 09:00:41;;;;;;;5.78;4.78;;;;;;;;;;5054368;28;20032;-59
2023/05/25 09:03:16;;;;;;;5.10;4.13;;;;;;;;;;5054941;28;20072;-59
2023/05/25 09:05:42;;;;;;;7.57;4.85;;;;;;;;;;5054160;28;20059;-58
2023/05/25 09:08:08;;;;;;;7.47;4.82;;;;;;;;;;5054831;28;20044;-56
2023/05/25 09:10:34;;;;;;;7.03;4.38;;;;;;;;;;5035809;28;20043;-59
2023/05/25 09:13:00;;;;;;;12.32;4.63;;;;;;;;;;5054468;28;20043;-58
2023/05/25 09:15:25;;;;;;;5.07;4.47;;;;;;;;;;5054865;28;20024;-57
2023/05/25 09:17:51;;;;;;;10.18;5.22;;;;;;;;;;5056212;28;20541;-59
2023/05/25 09:20:17;;;;;;;4.55;4.15;;;;;;;;;;5055583;28;20658;-59
2023/05/25 09:22:43;;;;;;;7.03;5.15;;;;;;;;;;5055935;28;20182;-61
2023/05/25 09:25:09;;;;;;;7.50;4.53;;;;;;;;;;5053917;28;20049;-56
2023/05/25 09:27:38;;;;;;;6.45;4.25;;;;;;;;;;5054426;28;20087;-58
2023/05/25 09:30:05;;;;;;;9.23;4.93;;;;;;;;;;5054649;28;20112;-58
2023/05/25 09:32:31;;;;;;;4.72;4.32;;;;;;;;;;5053459;28;20076;-59
2023/05/25 09:35:05;;;;;;;5.80;4.32;;;;;;;;;;5053294;28;20119;-57
2023/05/25 09:37:31;;;;;;;6.28;4.60;;;;;;;;;;5054189;28;20032;-57
2023/05/25 09:39:56;;;;;;;10.05;4.25;;;;;;;;;;5054654;28;20032;-55
2023/05/25 09:42:22;;;;;;;6.30;4.65;;;;;;;;;;5056109;28;20044;-61
2023/05/25 09:44:47;;;;;;;8.20;5.22;;;;;;;;;;5054795;28;20560;-66
2023/05/25 09:47:15;;;;;;;8.48;4.18;;;;;;;;;;5054282;28;20040;-67
2023/05/25 09:49:41;;;;;;;5.55;4.07;;;;;;;;;;5055522;28;20769;-67
2023/05/25 09:52:06;;;;;;;4.97;4.47;;;;;;;;;;5056881;28;20043;-66
2023/05/25 09:54:32;;;;;;;6.25;4.93;;;;;;;;;;5055468;28;20032;-67
2023/05/25 09:56:58;;;;;;;5.80;4.63;;;;;;;;;;5041802;28;20040;-67
2023/05/25 09:59:24;;;;;;;6.65;6.07;;;;;;;;;;5054606;28;20484;-71
2023/05/25 10:01:51;;;;;;;10.02;4.90;;;;;;;;;;5053990;28;20045;-63
2023/05/25 10:04:17;;;;;;;8.35;4.47;;;;;;;;;;5055451;28;20098;-57
2023/05/25 10:06:44;;;;;;;7.65;4.03;;;;;;;;;;5052959;28;20044;-58
2023/05/25 10:09:10;;;;;;;5.10;4.60;;;;;;;;;;5025218;28;20100;-57
2023/05/25 10:11:37;;;;;;;10.70;6.68;;;;;;;;;;5009220;28;20577;-57
2023/05/25 10:14:05;;;;;;;15.60;10.30;;;;;;;;;;5019349;28;20073;-56
2023/05/25 10:16:32;;;;;;;6.00;4.93;;;;;;;;;;5013841;28;20048;-56
2023/05/25 10:19:03;;;;;;;28.98;10.77;;;;;;;;;;5022018;28;20077;-58
2023/05/25 10:21:30;;;;;;;19.90;7.25;;;;;;;;;;5003990;28;20133;-58
2023/05/25 10:24:08;;;;;;;20.83;7.85;;;;;;;;;;5002558;28;20037;-59
2023/05/25 10:26:37;;;;;;;70.35;23.73;;;;;;;;;;5006875;28;20128;-55
2023/05/25 10:29:03;;;;;;;12.07;5.82;;;;;;;;;;5024963;28;20037;-56
2023/05/25 10:31:30;;;;;;;12.65;6.53;;;;;;;;;;5025156;28;20404;-57
2023/05/25 10:33:57;;;;;;;5.95;4.72;;;;;;;;;;5022543;28;20048;-60
2023/05/25 10:36:22;;;;;;;6.80;4.82;;;;;;;;;;5022919;28;20066;-57
2023/05/25 10:38:49;;;;;;;5.60;4.53;;;;;;;;;;5023518;28;20412;-58
2023/05/25 10:41:15;;;;;;;9.63;5.00;;;;;;;;;;5023837;28;20044;-58
2023/05/25 10:43:41;;;;;;;5.63;4.53;;;;;;;;;;5023291;28;20034;-59
2023/05/25 10:46:07;;;;;;;5.88;4.65;;;;;;;;;;5007069;28;20497;-59
2023/05/25 10:48:39;;;;;;;6.63;4.75;;;;;;;;;;5022618;28;20063;-59
2023/05/25 10:51:07;;;;;;;6.45;5.22;;;;;;;;;;5021498;28;20051;-60
2023/05/25 10:53:33;;;;;;;10.02;5.55;;;;;;;;;;5020643;28;20026;-60
2023/05/25 10:55:58;;;;;;;8.60;4.90;;;;;;;;;;5022865;28;20046;-62
2023/05/25 10:58:25;;;;;;;5.90;4.45;;;;;;;;;;5024157;28;20539;-61
2023/05/25 11:01:07;;;;;;;6.13;5.53;;;;;;;;;;5023461;28;20448;-60
2023/05/25 11:03:51;;;;;;;8.32;5.57;;;;;;;;;;5022972;28;20034;-61
2023/05/25 11:06:17;;;;;;;7.10;4.72;;;;;;;;;;5023831;28;20037;-61
2023/05/25 11:08:50;;;;;;;6.50;4.82;;;;;;;;;;5022520;28;20221;-62
2023/05/25 11:11:15;;;;;;;4.72;4.32;;;;;;;;;;4995227;28;20034;-62
2023/05/25 11:13:49;;;;;;;8.43;5.15;;;;;;;;;;5023809;28;20040;-62
2023/05/25 11:16:20;;;;;;;9.57;5.82;;;;;;;;;;5022940;28;20118;-63
2023/05/25 11:18:52;;;;;;;7.18;4.50;;;;;;;;;;5022400;28;20052;-62
2023/05/25 11:21:27;;;;;;;6.07;4.65;;;;;;;;;;5022839;28;20116;-66
2023/05/25 11:23:53;;;;;;;6.20;5.18;;;;;;;;;;5023534;28;20038;-62
2023/05/25 11:26:20;;;;;;;7.38;4.88;;;;;;;;;;5020777;28;20075;-63
2023/05/25 11:28:46;;;;;;;7.18;5.38;;;;;;;;;;5022667;28;20116;-62
2023/05/25 11:31:12;;;;;;;6.45;5.43;;;;;;;;;;5022572;28;20042;-60
2023/05/25 11:33:38;;;;;;;5.63;5.13;;;;;;;;;;5023648;28;20557;-61
2023/05/25 11:36:04;;;;;;;8.02;5.25;;;;;;;;;;5022162;28;20045;-60
2023/05/25 11:38:30;;;;;;;8.00;5.22;;;;;;;;;;5024609;28;20045;-60
2023/05/25 11:40:55;;;;;;;5.63;5.10;;;;;;;;;;5022588;28;20098;-60
2023/05/25 11:43:22;;;;;;;7.38;4.95;;;;;;;;;;5022886;28;20029;-61
2023/05/25 11:45:55;;;;;;;8.88;5.22;;;;;;;;;;5005728;28;20462;-61
2023/05/25 11:48:20;;;;;;;6.30;5.25;;;;;;;;;;5022518;28;20028;-62
2023/05/25 11:50:46;;;;;;;10.45;6.18;;;;;;;;;;5022102;28;20046;-61
2023/05/25 11:53:12;;;;;;;7.93;5.85;;;;;;;;;;5023695;28;20032;-62
2023/05/25 11:55:40;;;;;;;7.22;4.88;;;;;;;;;;5023358;28;20045;-66
2023/05/25 11:58:05;;;;;;;5.70;4.97;;;;;;;;;;5023022;28;20069;-61
2023/05/25 12:00:31;;;;;;;7.78;5.20;;;;;;;;;;5022161;28;20121;-60
2023/05/25 12:02:56;;;;;;;6.85;5.45;;;;;;;;;;5004904;28;20146;-61
2023/05/25 12:05:23;;;;;;;5.55;4.82;;;;;;;;;;5026790;28;20492;-63
2023/05/25 12:07:48;;;;;;;5.53;4.97;;;;;;;;;;5039524;28;20048;-60
2023/05/25 12:10:17;;;;;;;6.57;5.68;;;;;;;;;;5042074;28;20072;-61
2023/05/25 12:12:47;;;;;;;10.63;6.20;;;;;;;;;;5042886;28;20041;-60
2023/05/25 12:15:16;;;;;;;6.60;5.13;;;;;;;;;;5042004;28;20541;-61
2023/05/25 12:17:42;;;;;;;8.38;5.22;;;;;;;;;;5041769;28;20044;-61
2023/05/25 12:20:09;;;;;;;7.40;5.82;;;;;;;;;;5040021;28;20043;-60
2023/05/25 12:22:35;;;;;;;9.77;6.63;;;;;;;;;;5041362;28;20053;-60
2023/05/25 12:25:00;;;;;;;23.35;9.20;;;;;;;;;;5041960;28;20455;-60
2023/05/25 12:27:26;;;;;;;20.30;7.97;;;;;;;;;;5039764;28;20037;-60
2023/05/25 12:29:51;;;;;;;12.45;6.65;;;;;;;;;;5040827;28;20108;-60
2023/05/25 12:32:17;;;;;;;7.38;4.80;;;;;;;;;;5040336;28;20025;-61
2023/05/25 12:34:44;;;;;;;8.75;5.30;;;;;;;;;;5040726;28;20033;-62
2023/05/25 12:37:18;;;;;;;4.53;4.07;;;;;;;;;;5056687;28;20048;-61
2023/05/25 12:39:43;;;;;;;6.67;4.83;;;;;;;;;;5054579;28;20037;-62
2023/05/25 12:42:14;;;;;;;7.38;5.18;;;;;;;;;;5041894;28;20060;-62
2023/05/25 12:44:40;;;;;;;7.68;6.97;;;;;;;;;;5040612;28;20071;-63
2023/05/25 12:47:16;;;;;;;5.93;5.43;;;;;;;;;;5039915;28;20468;-62
2023/05/25 12:50:04;;;;;;;5.32;4.75;;;;;;;;;;5039597;28;20111;-62
2023/05/25 12:52:37;;;;;;;6.50;5.15;;;;;;;;;;5035655;28;20055;-63
2023/05/25 12:55:18;;;;;;;5.30;4.80;;;;;;;;;;5040466;28;20506;-62
2023/05/25 12:57:45;;;;;;;7.05;5.60;;;;;;;;;;5041249;28;20455;-62
2023/05/25 13:00:11;;;;;;;6.22;5.63;;;;;;;;;;5039639;28;20113;-61
2023/05/25 13:02:37;;;;;;;6.28;5.10;;;;;;;;;;5039713;28;20040;-62
2023/05/25 13:05:02;;;;;;;5.28;4.78;;;;;;;;;;5029811;28;20122;-61
2023/05/25 13:07:30;;;;;;;6.32;4.97;;;;;;;;;;5023121;28;20077;-63
2023/05/25 13:09:55;;;;;;;6.25;5.65;;;;;;;;;;5021443;28;20064;-60
2023/05/25 13:12:20;;;;;;;7.35;5.47;;;;;;;;;;5020961;28;20148;-60
2023/05/25 13:14:46;;;;;;;7.47;4.68;;;;;;;;;;5019762;28;20374;-60
2023/05/25 13:17:11;;;;;;;6.63;5.47;;;;;;;;;;5020431;28;20159;-59
2023/05/25 13:19:37;;;;;;;11.43;6.05;;;;;;;;;;5021290;28;20120;-58
2023/05/25 13:22:03;;;;;;;6.10;4.80;;;;;;;;;;4988565;28;20550;-60
2023/05/25 13:24:28;;;;;;;5.55;5.05;;;;;;;;;;5021223;28;20041;-59
2023/05/25 13:26:53;;;;;;;5.72;5.05;;;;;;;;;;5021418;28;20895;-60
2023/05/25 13:29:22;;;;;;;5.50;5.00;;;;;;;;;;5022016;28;20152;-59
2023/05/25 13:31:48;;;;;;;7.68;5.60;;;;;;;;;;5021333;28;20037;-60
2023/05/25 13:34:13;;;;;;;6.07;5.55;;;;;;;;;;5020825;28;20044;-61
2023/05/25 13:36:39;;;;;;;5.82;4.82;;;;;;;;;;5020623;28;20049;-61
2023/05/25 13:39:06;;;;;;;7.25;5.35;;;;;;;;;;5024278;28;20544;-61
2023/05/25 13:41:33;;;;;;;7.70;5.75;;;;;;;;;;5002900;28;20500;-61
2023/05/25 13:43:58;;;;;;;5.38;4.88;;;;;;;;;;5002906;28;20034;-61
2023/05/25 13:46:24;;;;;;;4.78;4.28;;;;;;;;;;5019375;28;20046;-60
2023/05/25 13:48:50;;;;;;;8.70;4.90;;;;;;;;;;5021052;28;20044;-60
2023/05/25 13:51:16;;;;;;;8.40;4.47;;;;;;;;;;5022252;28;20042;-60
2023/05/25 13:53:41;;;;;;;4.95;4.55;;;;;;;;;;5020922;28;20373;-61
2023/05/25 13:56:07;;;;;;;4.90;4.50;;;;;;;;;;5021333;28;20037;-60
2023/05/25 13:58:33;;;;;;;4.90;4.38;;;;;;;;;;5019208;28;20108;-61
2023/05/25 14:00:58;;;;;;;5.32;4.82;;;;;;;;;;5025548;28;20121;-61
2023/05/25 14:03:24;;;;;;;7.20;6.40;;;;;;;;;;5024908;28;20181;-62
2023/05/25 14:05:49;;;;;;;8.25;5.28;;;;;;;;;;5041039;28;20057;-65
2023/05/25 14:08:15;;;;;;;7.05;5.38;;;;;;;;;;5042760;28;20131;-61
2023/05/25 14:10:42;;;;;;;9.25;5.20;;;;;;;;;;5043124;28;20037;-60
2023/05/25 14:13:08;;;;;;;7.15;5.03;;;;;;;;;;5045280;28;20036;-62
2023/05/25 14:15:34;;;;;;;7.80;6.07;;;;;;;;;;5043001;28;20037;-61
2023/05/25 14:17:59;;;;;;;6.88;5.35;;;;;;;;;;5042478;28;20043;-60
2023/05/25 14:20:25;;;;;;;5.13;4.63;;;;;;;;;;5042283;28;20468;-60
2023/05/25 14:22:51;;;;;;;8.00;5.55;;;;;;;;;;5042804;28;20812;-60
2023/05/25 14:25:16;;;;;;;6.32;4.97;;;;;;;;;;5041400;28;20048;-60
2023/05/25 14:27:42;;;;;;;6.07;5.53;;;;;;;;;;5041731;28;20052;-62
2023/05/25 14:30:07;;;;;;;6.10;5.05;;;;;;;;;;5040387;28;20658;-60
2023/05/25 14:32:33;;;;;;;7.93;5.85;;;;;;;;;;5043193;28;20386;-60
2023/05/25 14:34:58;;;;;;;5.40;5.00;;;;;;;;;;5042729;28;20037;-60
2023/05/25 14:37:24;;;;;;;7.25;4.90;;;;;;;;;;5043363;28;20047;-60